Location Littleton, CO, US

ob KCOLITTL9 160450Z AUTO 17000KT SCT220 04/M08 A2995 RMK SLPNO 

2017.12.16 0450 UTC
Wind from the S (167 degrees) at Calm MPH ( KT) gusting to 0.0 MPH (0 KT)
Visibility    Mile(s)
Sky Conditions  partly cloudy
Temperature 38.60 F (4 C)
Dew Point 16.95 F (-8 C)
Relative Humidity 41%
Pressure   29.95 in. Hg (1014 hPa)
Rain  0.00 in.
Daily Rain  in.

Station Name  NDS Weather
Longitude, Latitude  -105.097859501839, 39.5649194844331
Elevation 5630
Station URL http://weather.mfc-cs.com
Software Type VWS V15.00